Time;durP1;ratioP1;P1;durP2;ratioP2;P2;SDS_P1;SDS_P2;PMS_P1;PMS_P2;Temp;Humidity;BMP_temperature;BMP_pressure;BME280_temperature;BME280_humidity;BME280_pressure;Samples;Min_cycle;Max_cycle;Signal;HPM_P1;HPM_P2
2021/05/17 00:00:27;;;;;;;;;0.00;0.00;;;;;;;;5061209;28;9684;-80
2021/05/17 00:02:56;;;;;;;;;2.00;0.00;;;;;;;;5053739;28;9894;-78
2021/05/17 00:05:23;;;;;;;;;0.00;0.00;;;;;;;;5060834;28;9903;-79
2021/05/17 00:07:51;;;;;;;;;1.00;0.75;;;;;;;;5065145;28;9838;-79
2021/05/17 00:10:19;;;;;;;;;0.00;0.00;;;;;;;;5053845;28;9875;-78
2021/05/17 00:12:46;;;;;;;;;0.50;0.50;;;;;;;;5055449;28;9763;-79
2021/05/17 00:15:15;;;;;;;;;0.00;0.00;;;;;;;;5053811;28;9826;-79
2021/05/17 00:17:44;;;;;;;;;0.00;0.00;;;;;;;;5061361;28;9976;-79
2021/05/17 00:20:13;;;;;;;;;0.00;0.00;;;;;;;;5054288;28;10007;-78
2021/05/17 00:22:40;;;;;;;;;0.00;0.00;;;;;;;;5058853;28;10949;-78
2021/05/17 00:25:09;;;;;;;;;0.00;0.00;;;;;;;;5065569;28;10447;-78
2021/05/17 00:27:36;;;;;;;;;0.00;0.00;;;;;;;;5061201;28;10005;-79
2021/05/17 00:30:03;;;;;;;;;0.00;0.00;;;;;;;;5055404;28;10081;-80
2021/05/17 00:32:30;;;;;;;;;0.00;0.00;;;;;;;;5060775;28;9800;-79
2021/05/17 00:34:58;;;;;;;;;0.50;0.00;;;;;;;;5064066;28;9776;-79
2021/05/17 00:37:25;;;;;;;;;0.00;0.00;;;;;;;;5054565;28;9969;-79
2021/05/17 00:39:52;;;;;;;;;0.00;0.00;;;;;;;;5053152;28;10011;-78
2021/05/17 00:42:21;;;;;;;;;1.00;0.00;;;;;;;;5054093;28;9969;-78
2021/05/17 00:44:48;;;;;;;;;0.00;0.00;;;;;;;;5059967;28;9946;-79
2021/05/17 00:47:17;;;;;;;;;0.00;0.00;;;;;;;;5056921;28;10084;-79
2021/05/17 00:49:45;;;;;;;;;0.25;0.00;;;;;;;;5019314;28;10001;-79
2021/05/17 00:52:14;;;;;;;;;1.25;1.25;;;;;;;;5037247;28;9951;-79
2021/05/17 00:54:41;;;;;;;;;0.00;0.00;;;;;;;;5029308;28;9893;-79
2021/05/17 00:57:09;;;;;;;;;0.00;0.00;;;;;;;;5039407;28;9889;-79
2021/05/17 00:59:36;;;;;;;;;0.00;0.00;;;;;;;;5036590;28;9954;-79
2021/05/17 01:02:04;;;;;;;;;0.00;0.00;;;;;;;;5033074;28;10800;-79
2021/05/17 01:04:31;;;;;;;;;0.25;0.25;;;;;;;;5032908;28;10831;-79
2021/05/17 01:07:00;;;;;;;;;1.00;0.00;;;;;;;;5040552;28;10529;-79
2021/05/17 01:09:28;;;;;;;;;0.50;0.00;;;;;;;;5043038;28;9866;-78
2021/05/17 01:11:58;;;;;;;;;0.25;0.00;;;;;;;;5040379;28;9946;-79
2021/05/17 01:14:26;;;;;;;;;0.00;0.00;;;;;;;;5042454;28;9871;-80
2021/05/17 01:16:54;;;;;;;;;0.00;0.00;;;;;;;;5034705;28;9879;-79
2021/05/17 01:19:30;;;;;;;;;0.00;0.00;;;;;;;;5041086;28;9708;-79
2021/05/17 01:21:58;;;;;;;;;0.00;0.00;;;;;;;;5040596;28;9632;-80
2021/05/17 01:24:27;;;;;;;;;1.50;0.00;;;;;;;;5044034;28;9880;-79
2021/05/17 01:26:54;;;;;;;;;0.00;0.00;;;;;;;;5039699;28;9703;-79
2021/05/17 01:29:21;;;;;;;;;0.00;0.00;;;;;;;;5045982;28;9542;-80
2021/05/17 01:31:48;;;;;;;;;0.00;0.00;;;;;;;;5037863;28;9497;-80
2021/05/17 01:34:16;;;;;;;;;0.00;0.00;;;;;;;;5034448;28;9620;-80
2021/05/17 01:36:45;;;;;;;;;2.00;1.00;;;;;;;;5041294;28;9608;-80
2021/05/17 01:39:12;;;;;;;;;0.00;0.00;;;;;;;;5037099;28;10460;-79
2021/05/17 01:41:40;;;;;;;;;0.50;0.50;;;;;;;;5033594;28;9604;-79
2021/05/17 01:44:12;;;;;;;;;0.00;0.00;;;;;;;;5048621;28;9735;-81
2021/05/17 01:46:40;;;;;;;;;0.75;0.50;;;;;;;;5039631;28;9648;-79
2021/05/17 01:49:06;;;;;;;;;0.00;0.00;;;;;;;;5053248;28;9712;-79
2021/05/17 01:51:34;;;;;;;;;1.50;0.00;;;;;;;;5051669;28;9761;-79
2021/05/17 01:54:01;;;;;;;;;0.00;0.00;;;;;;;;5055674;28;9657;-78
2021/05/17 01:56:28;;;;;;;;;0.00;0.00;;;;;;;;5061322;28;9631;-79
2021/05/17 01:58:57;;;;;;;;;1.00;1.00;;;;;;;;5059425;28;10429;-78
2021/05/17 02:01:25;;;;;;;;;0.00;0.00;;;;;;;;5061112;28;10762;-80
2021/05/17 02:03:52;;;;;;;;;0.00;0.00;;;;;;;;5045816;28;9724;-78
2021/05/17 02:06:19;;;;;;;;;0.75;0.75;;;;;;;;5061112;28;9585;-78
2021/05/17 02:08:48;;;;;;;;;1.75;1.00;;;;;;;;5046753;28;9612;-80
2021/05/17 02:11:16;;;;;;;;;1.75;0.00;;;;;;;;5053841;28;9604;-80
2021/05/17 02:13:43;;;;;;;;;1.50;1.00;;;;;;;;5062991;28;9723;-79
2021/05/17 02:16:13;;;;;;;;;0.00;0.00;;;;;;;;5065669;28;9589;-79
2021/05/17 02:18:42;;;;;;;;;6.75;1.00;;;;;;;;5058087;28;9594;-80
2021/05/17 02:21:10;;;;;;;;;0.25;0.25;;;;;;;;5058274;28;9567;-79
2021/05/17 02:23:37;;;;;;;;;2.00;0.75;;;;;;;;5061651;28;9568;-79
2021/05/17 02:26:05;;;;;;;;;0.75;0.75;;;;;;;;5048642;28;9602;-79
2021/05/17 02:28:32;;;;;;;;;1.00;1.00;;;;;;;;5058511;28;9634;-79
2021/05/17 02:31:00;;;;;;;;;1.00;1.00;;;;;;;;5058694;28;9634;-79
2021/05/17 02:33:29;;;;;;;;;0.00;0.00;;;;;;;;5077367;28;9632;-80
2021/05/17 02:35:56;;;;;;;;;0.75;0.50;;;;;;;;5044480;28;9567;-78
2021/05/17 02:38:23;;;;;;;;;1.50;0.00;;;;;;;;5061092;28;9788;-78
2021/05/17 02:40:51;;;;;;;;;2.00;1.00;;;;;;;;5059899;28;9562;-77
2021/05/17 02:43:21;;;;;;;;;0.00;0.00;;;;;;;;5048650;28;10492;-78
2021/05/17 02:45:49;;;;;;;;;1.25;1.00;;;;;;;;5051483;28;9472;-79
2021/05/17 02:48:16;;;;;;;;;2.00;0.00;;;;;;;;5045736;28;10340;-80
2021/05/17 02:50:46;;;;;;;;;1.00;1.00;;;;;;;;5044422;28;9628;-78
2021/05/17 02:53:36;;;;;;;;;1.25;1.25;;;;;;;;5047567;28;9638;-79
2021/05/17 02:56:09;;;;;;;;;1.50;1.50;;;;;;;;5057545;28;9572;-79
2021/05/17 02:58:37;;;;;;;;;0.50;0.50;;;;;;;;5060370;28;10368;-78
2021/05/17 03:01:07;;;;;;;;;0.25;0.25;;;;;;;;5058890;28;9747;-79
2021/05/17 03:03:38;;;;;;;;;1.00;1.00;;;;;;;;5059773;28;9638;-80
2021/05/17 03:06:07;;;;;;;;;0.75;0.75;;;;;;;;5053108;28;9589;-80
2021/05/17 03:08:38;;;;;;;;;2.25;1.75;;;;;;;;5059719;28;9553;-79
2021/05/17 03:11:06;;;;;;;;;1.00;1.00;;;;;;;;5060452;28;9598;-79
2021/05/17 03:13:35;;;;;;;;;0.00;0.00;;;;;;;;5054045;28;10395;-80
2021/05/17 03:16:03;;;;;;;;;0.75;0.75;;;;;;;;5040245;28;9737;-78
2021/05/17 03:18:32;;;;;;;;;1.00;1.00;;;;;;;;5052085;28;9597;-79
2021/05/17 03:20:58;;;;;;;;;3.25;1.00;;;;;;;;5045835;28;10541;-79
2021/05/17 03:23:27;;;;;;;;;0.00;0.00;;;;;;;;5056152;28;9746;-78
2021/05/17 03:25:54;;;;;;;;;1.00;1.00;;;;;;;;5031134;28;9650;-79
2021/05/17 03:28:22;;;;;;;;;3.25;0.75;;;;;;;;5064355;28;9693;-79
2021/05/17 03:30:49;;;;;;;;;0.00;0.00;;;;;;;;5032316;28;9573;-79
2021/05/17 03:33:15;;;;;;;;;0.00;0.00;;;;;;;;5038458;28;9492;-78
2021/05/17 03:35:42;;;;;;;;;1.00;1.00;;;;;;;;5060903;28;9655;-78
2021/05/17 03:38:09;;;;;;;;;0.00;0.00;;;;;;;;5055514;28;9638;-78
2021/05/17 03:40:37;;;;;;;;;3.50;1.00;;;;;;;;5051977;28;9646;-79
2021/05/17 03:43:04;;;;;;;;;2.50;0.00;;;;;;;;5037949;28;9553;-80
2021/05/17 03:45:31;;;;;;;;;1.00;1.00;;;;;;;;5055040;28;9560;-78
2021/05/17 03:47:58;;;;;;;;;2.00;1.00;;;;;;;;5068477;28;9704;-79
2021/05/17 03:50:25;;;;;;;;;3.00;0.00;;;;;;;;5059055;28;9579;-79
2021/05/17 03:52:53;;;;;;;;;0.00;0.00;;;;;;;;5039981;28;9572;-79
2021/05/17 03:55:19;;;;;;;;;1.00;1.00;;;;;;;;5053153;28;10269;-79
2021/05/17 03:57:47;;;;;;;;;0.75;0.75;;;;;;;;5053893;28;9636;-78
2021/05/17 04:00:15;;;;;;;;;2.00;0.00;;;;;;;;5059669;28;9601;-79
2021/05/17 04:02:42;;;;;;;;;0.50;0.00;;;;;;;;5052204;28;9552;-80
2021/05/17 04:05:23;;;;;;;;;0.75;0.75;;;;;;;;5055156;28;9566;-79
2021/05/17 04:13:24;;;;;;;;;2.00;1.00;;;;;;;;5046575;28;10380;-79
2021/05/17 04:15:53;;;;;;;;;3.50;2.00;;;;;;;;5056826;28;9573;-78
2021/05/17 04:18:20;;;;;;;;;1.25;1.25;;;;;;;;5069267;28;9759;-76
2021/05/17 04:20:48;;;;;;;;;1.00;1.00;;;;;;;;5059658;28;9642;-74
2021/05/17 04:23:15;;;;;;;;;2.00;0.50;;;;;;;;5053090;28;9651;-76
2021/05/17 04:25:42;;;;;;;;;1.00;0.00;;;;;;;;5056898;28;9491;-75
2021/05/17 04:28:09;;;;;;;;;1.00;1.00;;;;;;;;5040740;28;9560;-75
2021/05/17 04:30:38;;;;;;;;;1.00;1.00;;;;;;;;5050596;28;9770;-76
2021/05/17 04:33:05;;;;;;;;;1.00;1.00;;;;;;;;5052803;28;9552;-75
2021/05/17 04:35:32;;;;;;;;;3.25;2.25;;;;;;;;5055669;28;9662;-75
2021/05/17 04:37:59;;;;;;;;;1.00;1.00;;;;;;;;5056337;28;9800;-76
2021/05/17 04:40:26;;;;;;;;;0.25;0.25;;;;;;;;5051410;28;9706;-75
2021/05/17 04:42:52;;;;;;;;;1.00;1.00;;;;;;;;5054157;28;10208;-76
2021/05/17 04:45:20;;;;;;;;;1.00;1.00;;;;;;;;5056255;28;9612;-78
2021/05/17 04:47:51;;;;;;;;;0.75;0.75;;;;;;;;5064150;28;9563;-76
2021/05/17 04:50:18;;;;;;;;;2.00;2.00;;;;;;;;5063990;28;9554;-75
2021/05/17 04:52:44;;;;;;;;;0.25;0.25;;;;;;;;5059894;28;9602;-76
2021/05/17 04:55:12;;;;;;;;;0.50;0.50;;;;;;;;5054893;28;9525;-75
2021/05/17 04:57:39;;;;;;;;;0.00;0.00;;;;;;;;5055918;28;9687;-74
2021/05/17 05:00:08;;;;;;;;;1.50;1.50;;;;;;;;5058778;28;9587;-74
2021/05/17 05:02:35;;;;;;;;;1.00;1.00;;;;;;;;5061869;28;9879;-73
2021/05/17 05:05:03;;;;;;;;;2.00;1.00;;;;;;;;5060285;28;9617;-73
2021/05/17 05:07:29;;;;;;;;;1.00;1.00;;;;;;;;5061079;28;9745;-73
2021/05/17 05:09:56;;;;;;;;;0.00;0.00;;;;;;;;5062650;28;9652;-72
2021/05/17 05:12:23;;;;;;;;;1.75;1.75;;;;;;;;5060704;28;9542;-74
2021/05/17 05:14:50;;;;;;;;;1.00;1.00;;;;;;;;5060286;28;9664;-73
2021/05/17 05:17:17;;;;;;;;;0.75;0.75;;;;;;;;5060426;28;9684;-72
2021/05/17 05:19:44;;;;;;;;;0.00;0.00;;;;;;;;5056724;28;9706;-73
2021/05/17 05:22:12;;;;;;;;;3.00;2.00;;;;;;;;5059241;28;9925;-72
2021/05/17 05:24:40;;;;;;;;;1.75;1.75;;;;;;;;5040963;28;9380;-72
2021/05/17 05:27:14;;;;;;;;;1.00;1.00;;;;;;;;5060478;28;9578;-74
2021/05/17 05:29:53;;;;;;;;;1.33;0.67;;;;;;;;5060590;28;9510;-73
2021/05/17 05:32:25;;;;;;;;;1.75;0.75;;;;;;;;5056915;28;9430;-75
2021/05/17 05:34:52;;;;;;;;;1.00;1.00;;;;;;;;5039622;28;9412;-72
2021/05/17 05:37:21;;;;;;;;;1.50;1.00;;;;;;;;5062386;28;9529;-72
2021/05/17 05:39:48;;;;;;;;;2.00;1.00;;;;;;;;5063978;28;9481;-74
2021/05/17 05:42:15;;;;;;;;;3.00;1.00;;;;;;;;5063739;28;9561;-73
2021/05/17 05:44:49;;;;;;;;;1.50;1.50;;;;;;;;5063290;28;9648;-72
2021/05/17 05:47:17;;;;;;;;;1.00;1.00;;;;;;;;5063433;28;9575;-72
2021/05/17 05:49:45;;;;;;;;;3.75;0.00;;;;;;;;5063378;28;9650;-72
2021/05/17 05:52:12;;;;;;;;;1.00;1.00;;;;;;;;5063451;28;9809;-72
2021/05/17 05:54:40;;;;;;;;;2.00;1.00;;;;;;;;5062304;28;9435;-72
2021/05/17 05:57:08;;;;;;;;;1.00;1.00;;;;;;;;5063891;28;10356;-73
2021/05/17 05:59:35;;;;;;;;;0.75;0.75;;;;;;;;5064219;28;9661;-72
2021/05/17 06:02:03;;;;;;;;;2.00;0.33;;;;;;;;5062755;28;9515;-72
2021/05/17 06:04:29;;;;;;;;;2.00;2.00;;;;;;;;5046295;28;9412;-73
2021/05/17 06:06:56;;;;;;;;;3.00;1.00;;;;;;;;5062320;28;9666;-72
2021/05/17 06:09:23;;;;;;;;;1.00;1.00;;;;;;;;5064363;28;9631;-73
2021/05/17 06:11:53;;;;;;;;;0.00;0.00;;;;;;;;5062614;28;9580;-73
2021/05/17 06:14:21;;;;;;;;;1.00;1.00;;;;;;;;5064256;28;10208;-72
2021/05/17 06:16:48;;;;;;;;;2.00;0.33;;;;;;;;5063784;28;9433;-73
2021/05/17 06:19:16;;;;;;;;;0.00;0.00;;;;;;;;5062903;28;10538;-73
2021/05/17 06:21:43;;;;;;;;;0.50;0.50;;;;;;;;5063278;28;9482;-72
2021/05/17 06:24:12;;;;;;;;;2.00;1.00;;;;;;;;5062927;28;9516;-73
2021/05/17 06:26:40;;;;;;;;;2.50;1.25;;;;;;;;5046525;28;9421;-71
2021/05/17 06:29:09;;;;;;;;;1.00;0.67;;;;;;;;5062349;28;9491;-72
2021/05/17 06:31:43;;;;;;;;;2.00;0.00;;;;;;;;5063432;28;9273;-72
2021/05/17 06:34:10;;;;;;;;;0.67;0.00;;;;;;;;5063104;28;9264;-73
2021/05/17 06:36:37;;;;;;;;;3.00;1.00;;;;;;;;5063140;28;9210;-73
2021/05/17 06:39:07;;;;;;;;;1.00;1.00;;;;;;;;5062777;28;9458;-72
2021/05/17 06:41:34;;;;;;;;;1.00;1.00;;;;;;;;5041393;28;9222;-72
2021/05/17 06:44:01;;;;;;;;;4.00;0.33;;;;;;;;5061996;28;9230;-72
2021/05/17 06:46:29;;;;;;;;;1.00;1.00;;;;;;;;5061853;28;9188;-72
2021/05/17 06:48:56;;;;;;;;;0.00;0.00;;;;;;;;5063441;28;9108;-72
2021/05/17 06:51:23;;;;;;;;;1.00;1.00;;;;;;;;5063026;28;9051;-71
2021/05/17 06:53:56;;;;;;;;;2.00;0.33;;;;;;;;5045395;28;9226;-72
2021/05/17 06:56:26;;;;;;;;;0.33;0.33;;;;;;;;5062244;28;9014;-73
2021/05/17 06:58:55;;;;;;;;;0.00;0.00;;;;;;;;5044932;28;9097;-72
2021/05/17 07:01:23;;;;;;;;;1.00;1.00;;;;;;;;5063097;28;9112;-72
2021/05/17 07:03:52;;;;;;;;;0.33;0.33;;;;;;;;5062431;28;9111;-72
2021/05/17 07:06:22;;;;;;;;;1.00;1.00;;;;;;;;5063135;28;9021;-73
2021/05/17 07:11:46;;;;;;;;;0.00;0.00;;;;;;;;5062155;28;9252;-72
2021/05/17 07:14:13;;;;;;;;;1.00;1.00;;;;;;;;5063459;28;9113;-72
2021/05/17 07:16:40;;;;;;;;;1.00;1.00;;;;;;;;5061526;28;9188;-73
2021/05/17 07:19:09;;;;;;;;;0.00;0.00;;;;;;;;5062799;28;9196;-72
2021/05/17 07:24:24;;;;;;;;;0.00;0.00;;;;;;;;5062971;28;9182;-72
2021/05/17 07:26:51;;;;;;;;;1.00;0.00;;;;;;;;5062540;28;9268;-72
2021/05/17 07:29:19;;;;;;;;;1.33;0.00;;;;;;;;5061631;28;9197;-72
2021/05/17 07:31:46;;;;;;;;;0.00;0.00;;;;;;;;5062328;28;9143;-73
2021/05/17 07:34:15;;;;;;;;;2.00;0.00;;;;;;;;5044070;28;9053;-73
2021/05/17 07:36:42;;;;;;;;;2.33;1.00;;;;;;;;5062935;28;9158;-72
2021/05/17 07:39:09;;;;;;;;;0.67;0.67;;;;;;;;5061594;28;9274;-73
2021/05/17 07:41:35;;;;;;;;;1.00;1.00;;;;;;;;5062755;28;9979;-72
2021/05/17 07:44:03;;;;;;;;;0.33;0.33;;;;;;;;5062131;28;9196;-72
2021/05/17 07:46:30;;;;;;;;;0.00;0.00;;;;;;;;5051087;28;9281;-73
2021/05/17 07:49:08;;;;;;;;;0.00;0.00;;;;;;;;5060506;28;8951;-72
2021/05/17 07:51:36;;;;;;;;;0.67;0.67;;;;;;;;5060693;28;9094;-72
2021/05/17 07:54:04;;;;;;;;;0.67;0.67;;;;;;;;5061929;28;9089;-73
2021/05/17 07:56:31;;;;;;;;;0.00;0.00;;;;;;;;5060863;28;9323;-72
2021/05/17 07:58:58;;;;;;;;;0.00;0.00;;;;;;;;5059799;28;9332;-73
2021/05/17 08:01:25;;;;;;;;;1.00;1.00;;;;;;;;5061085;28;9045;-72
2021/05/17 08:03:52;;;;;;;;;1.50;0.00;;;;;;;;5060657;28;9040;-73
2021/05/17 08:06:18;;;;;;;;;1.33;0.00;;;;;;;;5061983;28;8963;-73
2021/05/17 08:08:46;;;;;;;;;0.00;0.00;;;;;;;;5057783;28;9662;-74
2021/05/17 08:11:13;;;;;;;;;0.00;0.00;;;;;;;;5061458;28;8868;-72
2021/05/17 08:13:40;;;;;;;;;0.00;0.00;;;;;;;;5060118;28;8887;-72
2021/05/17 08:16:07;;;;;;;;;0.00;0.00;;;;;;;;5056419;28;8880;-72
2021/05/17 08:18:34;;;;;;;;;0.00;0.00;;;;;;;;5059701;28;8894;-73
2021/05/17 08:21:01;;;;;;;;;0.00;0.00;;;;;;;;5061216;28;9673;-72
2021/05/17 08:23:28;;;;;;;;;0.50;0.50;;;;;;;;5060837;28;8848;-72
2021/05/17 08:25:57;;;;;;;;;0.00;0.00;;;;;;;;5059840;28;8849;-72
2021/05/17 08:28:24;;;;;;;;;2.00;0.75;;;;;;;;5064410;28;8856;-73
2021/05/17 08:30:55;;;;;;;;;0.75;0.00;;;;;;;;5044570;28;8824;-72
2021/05/17 08:33:23;;;;;;;;;0.00;0.00;;;;;;;;5075764;28;8881;-73
2021/05/17 08:35:50;;;;;;;;;0.00;0.00;;;;;;;;5061103;28;8999;-73
2021/05/17 08:38:17;;;;;;;;;0.00;0.00;;;;;;;;5063714;28;8876;-72
2021/05/17 08:40:46;;;;;;;;;0.75;0.75;;;;;;;;5064016;28;8916;-73
2021/05/17 08:43:14;;;;;;;;;1.00;0.00;;;;;;;;5063517;28;8907;-72
2021/05/17 08:45:43;;;;;;;;;0.00;0.00;;;;;;;;5064154;28;8945;-73
2021/05/17 08:48:10;;;;;;;;;0.00;0.00;;;;;;;;5063344;28;8852;-72
2021/05/17 08:50:37;;;;;;;;;1.75;1.00;;;;;;;;5063423;28;8864;-71
2021/05/17 08:53:04;;;;;;;;;0.00;0.00;;;;;;;;5063088;28;8872;-72
2021/05/17 08:55:31;;;;;;;;;0.75;0.75;;;;;;;;5063960;28;9709;-72
2021/05/17 08:57:58;;;;;;;;;0.75;0.75;;;;;;;;5061149;28;8844;-72
2021/05/17 09:00:26;;;;;;;;;2.00;0.75;;;;;;;;5045151;28;8780;-72
2021/05/17 09:02:53;;;;;;;;;1.00;0.50;;;;;;;;5064295;28;9618;-73
2021/05/17 09:05:23;;;;;;;;;0.75;0.75;;;;;;;;5062774;28;8880;-72
2021/05/17 09:07:51;;;;;;;;;0.50;0.50;;;;;;;;5064085;28;8934;-72
2021/05/17 09:10:20;;;;;;;;;1.50;0.50;;;;;;;;5062140;28;9594;-72
2021/05/17 09:13:05;;;;;;;;;1.00;1.00;;;;;;;;5063340;28;9764;-72
2021/05/17 09:15:43;;;;;;;;;1.00;1.00;;;;;;;;5062609;28;8857;-71
2021/05/17 09:18:14;;;;;;;;;1.00;1.00;;;;;;;;5062766;28;8948;-71
2021/05/17 09:20:42;;;;;;;;;1.00;1.00;;;;;;;;5061616;28;8844;-72
2021/05/17 09:23:14;;;;;;;;;1.00;1.00;;;;;;;;5062998;28;9720;-72
2021/05/17 09:25:59;;;;;;;;;0.00;0.00;;;;;;;;5063635;28;9658;-72
2021/05/17 09:28:28;;;;;;;;;1.00;1.00;;;;;;;;5060615;28;8844;-72
2021/05/17 09:31:03;;;;;;;;;0.00;0.00;;;;;;;;5062551;28;8784;-72
2021/05/17 09:33:30;;;;;;;;;0.00;0.00;;;;;;;;5063593;28;8878;-71
2021/05/17 09:35:57;;;;;;;;;1.00;1.00;;;;;;;;5061098;28;8899;-72
2021/05/17 09:38:25;;;;;;;;;0.00;0.00;;;;;;;;5063625;28;8872;-71
2021/05/17 09:41:04;;;;;;;;;2.75;0.00;;;;;;;;5061781;28;8876;-72
2021/05/17 09:43:32;;;;;;;;;1.00;1.00;;;;;;;;5058223;28;8891;-73
2021/05/17 09:46:01;;;;;;;;;0.00;0.00;;;;;;;;5060453;28;8864;-72
2021/05/17 09:48:45;;;;;;;;;1.50;0.25;;;;;;;;5062132;28;8880;-72
2021/05/17 09:51:13;;;;;;;;;0.00;0.00;;;;;;;;5062716;28;8983;-72
2021/05/17 09:53:42;;;;;;;;;0.50;0.50;;;;;;;;5061331;28;8857;-71
2021/05/17 09:56:11;;;;;;;;;0.00;0.00;;;;;;;;5054932;28;8860;-72
2021/05/17 09:58:42;;;;;;;;;0.00;0.00;;;;;;;;5060665;28;8910;-71
2021/05/17 10:01:15;;;;;;;;;0.00;0.00;;;;;;;;5061513;28;8923;-72
2021/05/17 10:03:44;;;;;;;;;0.00;0.00;;;;;;;;5053614;28;9609;-72
2021/05/17 10:06:13;;;;;;;;;0.00;0.00;;;;;;;;5061214;28;8875;-71
2021/05/17 10:08:40;;;;;;;;;0.00;0.00;;;;;;;;5063758;28;8891;-72
2021/05/17 10:11:08;;;;;;;;;2.25;0.00;;;;;;;;5062673;28;9625;-72
2021/05/17 10:13:35;;;;;;;;;1.00;0.75;;;;;;;;5045503;28;8883;-72
2021/05/17 10:16:06;;;;;;;;;0.75;0.00;;;;;;;;5062742;28;8863;-71
2021/05/17 10:18:35;;;;;;;;;0.00;0.00;;;;;;;;5062751;28;9633;-73
2021/05/17 10:21:03;;;;;;;;;0.00;0.00;;;;;;;;5062974;28;8899;-72
2021/05/17 10:23:30;;;;;;;;;0.00;0.00;;;;;;;;5061332;28;8876;-73
2021/05/17 10:26:08;;;;;;;;;0.00;0.00;;;;;;;;5057827;28;11399;-76
2021/05/17 10:28:36;;;;;;;;;0.00;0.00;;;;;;;;5066391;28;8879;-71
2021/05/17 10:31:16;;;;;;;;;0.50;0.00;;;;;;;;5062106;28;8951;-72
2021/05/17 10:33:45;;;;;;;;;0.00;0.00;;;;;;;;5066674;28;10018;-75
2021/05/17 10:36:14;;;;;;;;;0.00;0.00;;;;;;;;5065307;28;8852;-72
2021/05/17 10:38:46;;;;;;;;;0.00;0.00;;;;;;;;5064674;28;8817;-72
2021/05/17 10:41:33;;;;;;;;;0.50;0.50;;;;;;;;5059396;28;8872;-72
2021/05/17 10:44:07;;;;;;;;;0.00;0.00;;;;;;;;5063068;28;8845;-77
2021/05/17 10:46:37;;;;;;;;;1.50;0.00;;;;;;;;5052457;28;8892;-73
2021/05/17 10:49:36;;;;;;;;;0.00;0.00;;;;;;;;5057392;28;8860;-71
2021/05/17 10:52:22;;;;;;;;;1.00;1.00;;;;;;;;4986145;28;8885;-73
2021/05/17 10:54:54;;;;;;;;;1.00;1.00;;;;;;;;5054401;28;8868;-72
2021/05/17 10:57:26;;;;;;;;;2.00;0.00;;;;;;;;5063337;28;8878;-72
2021/05/17 11:02:42;;;;;;;;;0.00;0.00;;;;;;;;5066593;28;8805;-73
2021/05/17 11:05:14;;;;;;;;;0.00;0.00;;;;;;;;5062691;28;8848;-72
2021/05/17 11:07:48;;;;;;;;;0.00;0.00;;;;;;;;5063998;28;8872;-73
2021/05/17 11:10:18;;;;;;;;;0.00;0.00;;;;;;;;5064176;28;8888;-73
2021/05/17 11:13:07;;;;;;;;;0.75;0.75;;;;;;;;5058374;28;8868;-75
2021/05/17 11:16:04;;;;;;;;;1.00;0.00;;;;;;;;5056526;28;8852;-73
2021/05/17 11:18:43;;;;;;;;;1.00;1.00;;;;;;;;5057350;28;8911;-73
2021/05/17 11:21:22;;;;;;;;;1.00;1.00;;;;;;;;5058792;28;8995;-71
2021/05/17 11:23:53;;;;;;;;;1.00;1.00;;;;;;;;5062795;28;8872;-72
2021/05/17 11:26:23;;;;;;;;;2.00;2.00;;;;;;;;5061598;28;8955;-71
2021/05/17 11:29:08;;;;;;;;;2.25;2.25;;;;;;;;5066372;28;8903;-71
2021/05/17 11:34:25;;;;;;;;;1.00;1.00;;;;;;;;5056634;28;8914;-73
2021/05/17 11:37:09;;;;;;;;;1.75;1.75;;;;;;;;5049534;28;8862;-74
2021/05/17 11:39:37;;;;;;;;;4.00;2.00;;;;;;;;5062072;28;8986;-71
2021/05/17 11:42:06;;;;;;;;;3.00;2.00;;;;;;;;5056018;28;9002;-76
2021/05/17 11:44:36;;;;;;;;;0.75;0.75;;;;;;;;5058305;28;8913;-74
2021/05/17 11:47:05;;;;;;;;;1.00;1.00;;;;;;;;5057503;28;8856;-73
2021/05/17 11:49:33;;;;;;;;;0.00;0.00;;;;;;;;5058222;28;8856;-73
2021/05/17 11:52:03;;;;;;;;;1.00;1.00;;;;;;;;5059561;28;8900;-73
2021/05/17 11:54:36;;;;;;;;;1.50;1.00;;;;;;;;5061425;28;9006;-73
2021/05/17 11:57:04;;;;;;;;;1.00;1.00;;;;;;;;5068563;28;8876;-74
2021/05/17 11:59:32;;;;;;;;;0.00;0.00;;;;;;;;5065701;28;8886;-74
2021/05/17 12:02:00;;;;;;;;;2.00;2.00;;;;;;;;5065008;28;9594;-75
2021/05/17 12:04:29;;;;;;;;;1.75;1.75;;;;;;;;5067381;28;8882;-74
2021/05/17 12:06:58;;;;;;;;;4.50;2.00;;;;;;;;5069177;28;9645;-75
2021/05/17 12:09:31;;;;;;;;;2.25;2.25;;;;;;;;5067179;28;8896;-77
2021/05/17 12:12:00;;;;;;;;;3.25;3.25;;;;;;;;5064634;28;8868;-74
2021/05/17 12:14:29;;;;;;;;;2.25;2.00;;;;;;;;5062755;28;8886;-73
2021/05/17 12:17:05;;;;;;;;;3.00;2.25;;;;;;;;5049244;28;8868;-75
2021/05/17 12:19:31;;;;;;;;;0.00;0.00;;;;;;;;5049086;28;8903;-72
2021/05/17 12:22:00;;;;;;;;;2.75;2.75;;;;;;;;5070341;28;8860;-72
2021/05/17 12:24:30;;;;;;;;;4.50;2.00;;;;;;;;5068014;28;8884;-74
2021/05/17 12:26:59;;;;;;;;;2.50;2.50;;;;;;;;5049520;28;8868;-74
2021/05/17 12:29:27;;;;;;;;;2.00;2.00;;;;;;;;5053804;28;8852;-73
2021/05/17 12:32:07;;;;;;;;;2.00;2.00;;;;;;;;5066805;28;9674;-73
2021/05/17 12:34:34;;;;;;;;;2.25;2.00;;;;;;;;5065458;28;8884;-72
2021/05/17 12:37:01;;;;;;;;;2.00;2.00;;;;;;;;5066742;28;8864;-71
2021/05/17 12:39:30;;;;;;;;;3.50;2.00;;;;;;;;5063576;28;8884;-71
2021/05/17 12:41:57;;;;;;;;;2.00;2.00;;;;;;;;5068223;28;8892;-72
2021/05/17 12:44:36;;;;;;;;;1.75;1.75;;;;;;;;5044325;28;8960;-72
2021/05/17 12:47:09;;;;;;;;;2.00;1.75;;;;;;;;5048507;28;8884;-73
2021/05/17 12:49:51;;;;;;;;;2.00;2.00;;;;;;;;5064905;28;8868;-72
2021/05/17 12:52:26;;;;;;;;;1.00;1.00;;;;;;;;5045048;28;8883;-71
2021/05/17 12:55:16;;;;;;;;;1.00;1.00;;;;;;;;5060003;28;8870;-72
2021/05/17 12:57:55;;;;;;;;;1.00;1.00;;;;;;;;5061666;28;8867;-72
2021/05/17 13:00:42;;;;;;;;;0.25;0.25;;;;;;;;5062352;28;8868;-72
2021/05/17 13:03:12;;;;;;;;;1.00;1.00;;;;;;;;5061039;28;8894;-73
2021/05/17 13:05:51;;;;;;;;;1.00;1.00;;;;;;;;5064164;28;8868;-72
2021/05/17 13:08:18;;;;;;;;;0.75;0.75;;;;;;;;5059075;28;8925;-72
2021/05/17 13:10:57;;;;;;;;;0.20;0.00;;;;;;;;5063597;28;8884;-71
2021/05/17 13:13:48;;;;;;;;;1.40;1.40;;;;;;;;5061948;28;8880;-73
2021/05/17 13:16:19;;;;;;;;;1.00;1.00;;;;;;;;5062759;28;9010;-71
2021/05/17 13:19:08;;;;;;;;;1.00;1.00;;;;;;;;5077387;28;8880;-72
2021/05/17 13:21:45;;;;;;;;;1.20;1.00;;;;;;;;5062659;28;8880;-72
2021/05/17 13:30:03;;;;;;;;;1.20;1.20;;;;;;;;5063188;28;9542;-72
2021/05/17 13:32:31;;;;;;;;;2.00;2.00;;;;;;;;5063601;28;8840;-73
2021/05/17 13:34:58;;;;;;;;;2.60;2.60;;;;;;;;5064048;28;8888;-72
2021/05/17 13:37:25;;;;;;;;;5.20;2.00;;;;;;;;5063833;28;8874;-72
2021/05/17 13:39:52;;;;;;;;;2.40;2.40;;;;;;;;5060094;28;9029;-73
2021/05/17 13:42:20;;;;;;;;;1.00;1.00;;;;;;;;5062713;28;8864;-72
2021/05/17 13:44:47;;;;;;;;;1.80;1.80;;;;;;;;5056612;28;8872;-72
2021/05/17 13:47:14;;;;;;;;;1.40;1.40;;;;;;;;5056779;28;8865;-71
2021/05/17 13:49:41;;;;;;;;;2.20;1.00;;;;;;;;5059609;28;8876;-73
2021/05/17 13:52:09;;;;;;;;;1.00;1.00;;;;;;;;5060503;28;8993;-72
2021/05/17 13:54:35;;;;;;;;;2.20;2.20;;;;;;;;5048069;28;8855;-72
2021/05/17 13:57:03;;;;;;;;;2.00;1.00;;;;;;;;5057626;28;8898;-72
2021/05/17 13:59:30;;;;;;;;;1.50;1.50;;;;;;;;5061861;28;8848;-74
2021/05/17 14:01:57;;;;;;;;;1.00;1.00;;;;;;;;5055731;28;8801;-75
2021/05/17 14:04:25;;;;;;;;;2.00;2.00;;;;;;;;5057522;28;8902;-75
2021/05/17 14:06:51;;;;;;;;;1.25;1.25;;;;;;;;5059841;28;9374;-74
2021/05/17 14:09:19;;;;;;;;;3.00;2.75;;;;;;;;5059734;28;8872;-74
2021/05/17 14:11:46;;;;;;;;;2.00;2.00;;;;;;;;5061153;28;8871;-74
2021/05/17 14:14:13;;;;;;;;;2.00;2.00;;;;;;;;5059429;28;8882;-74
2021/05/17 14:16:41;;;;;;;;;3.00;3.00;;;;;;;;5051152;28;8832;-74
2021/05/17 14:19:09;;;;;;;;;2.80;2.80;;;;;;;;5060965;28;8870;-74
2021/05/17 14:21:36;;;;;;;;;2.00;2.00;;;;;;;;5060594;28;8865;-74
2021/05/17 14:24:04;;;;;;;;;2.00;2.00;;;;;;;;5057274;28;8876;-76
2021/05/17 14:26:32;;;;;;;;;2.00;2.00;;;;;;;;5054497;28;8870;-75
2021/05/17 14:28:59;;;;;;;;;3.00;1.00;;;;;;;;5051734;28;8854;-79
2021/05/17 14:31:27;;;;;;;;;2.80;2.80;;;;;;;;5063095;28;8836;-74
2021/05/17 14:33:55;;;;;;;;;2.20;2.20;;;;;;;;5043757;28;8909;-75
2021/05/17 14:36:22;;;;;;;;;3.00;3.00;;;;;;;;5055969;28;8864;-76
2021/05/17 14:38:49;;;;;;;;;2.40;2.00;;;;;;;;5061638;28;9029;-74
2021/05/17 14:41:16;;;;;;;;;3.60;3.60;;;;;;;;5061269;28;8890;-74
2021/05/17 14:43:43;;;;;;;;;2.00;2.00;;;;;;;;5041573;28;8883;-75
2021/05/17 14:46:09;;;;;;;;;2.40;2.40;;;;;;;;5056184;28;8870;-74
2021/05/17 14:48:36;;;;;;;;;1.80;1.80;;;;;;;;5054964;28;8868;-74
2021/05/17 14:51:05;;;;;;;;;2.20;2.20;;;;;;;;5061819;28;8878;-74
2021/05/17 14:53:32;;;;;;;;;2.80;2.80;;;;;;;;5052483;28;8896;-74
2021/05/17 14:55:59;;;;;;;;;2.00;2.00;;;;;;;;5060128;28;8856;-75
2021/05/17 14:58:26;;;;;;;;;1.50;1.50;;;;;;;;5049897;28;8932;-74
2021/05/17 15:00:53;;;;;;;;;2.00;2.00;;;;;;;;5059422;28;9339;-75
2021/05/17 15:03:20;;;;;;;;;2.00;2.00;;;;;;;;5037688;28;8858;-75
2021/05/17 15:05:47;;;;;;;;;4.75;3.00;;;;;;;;5055961;28;8881;-75
2021/05/17 15:08:15;;;;;;;;;2.00;2.00;;;;;;;;5056629;28;8868;-74
2021/05/17 15:10:42;;;;;;;;;2.00;2.00;;;;;;;;5053655;28;8924;-75
2021/05/17 15:13:09;;;;;;;;;1.00;1.00;;;;;;;;5058966;28;8872;-75
2021/05/17 15:15:36;;;;;;;;;3.50;1.00;;;;;;;;5056642;28;8881;-76
2021/05/17 15:18:04;;;;;;;;;2.00;2.00;;;;;;;;5062733;28;9682;-75
2021/05/17 15:20:31;;;;;;;;;1.00;1.00;;;;;;;;5061232;28;8894;-75
2021/05/17 15:23:02;;;;;;;;;2.00;1.00;;;;;;;;5059746;28;8906;-74
2021/05/17 15:25:30;;;;;;;;;3.00;2.00;;;;;;;;5053965;28;8880;-75
2021/05/17 15:27:57;;;;;;;;;2.25;2.25;;;;;;;;5057479;28;8940;-76
2021/05/17 15:30:26;;;;;;;;;2.00;2.00;;;;;;;;5058553;28;8779;-75